Time;durP1;ratioP1;P1;durP2;ratioP2;P2;SDS_P1;SDS_P2;PMS_P1;PMS_P2;Temp;Humidity;BMP_temperature;BMP_pressure;BME280_temperature;BME280_humidity;BME280_pressure;Samples;Min_cycle;Max_cycle;Signal;HPM_P1;HPM_P2
2022/05/09 00:01:38;;;;;;;1999.90;999.90;;;;;;;16.83;58.57;95997.75;4994999;28;20038;-73
2022/05/09 00:04:03;;;;;;;1999.90;999.90;;;;;;;16.83;58.52;96000.44;4995094;28;20124;-72
2022/05/09 00:06:29;;;;;;;1999.90;999.90;;;;;;;16.79;58.39;95980.72;5012699;28;20052;-73
2022/05/09 00:08:54;;;;;;;1999.90;999.90;;;;;;;16.91;58.21;96007.69;4994582;28;20490;-74
2022/05/09 00:11:19;;;;;;;1999.90;999.90;;;;;;;16.82;58.10;96004.22;4994898;28;20022;-73
2022/05/09 00:13:45;;;;;;;1999.90;999.90;;;;;;;16.61;58.47;95977.25;5012760;28;20021;-73
2022/05/09 00:16:11;;;;;;;1999.90;999.90;;;;;;;16.30;59.02;95964.88;5012530;28;20033;-73
2022/05/09 00:18:37;;;;;;;1999.90;999.90;;;;;;;15.92;61.36;96025.69;5012033;28;20030;-74
2022/05/09 00:21:03;;;;;;;1999.90;999.90;;;;;;;15.53;62.52;96028.19;5012312;28;20113;-73
2022/05/09 00:23:28;;;;;;;1999.90;999.90;;;;;;;15.84;62.34;96027.28;5012200;28;20026;-72
2022/05/09 00:25:54;;;;;;;1999.90;999.90;;;;;;;15.88;61.43;95996.03;5012288;28;20030;-73
2022/05/09 00:28:20;;;;;;;1999.90;999.90;;;;;;;16.25;60.88;96017.94;5011935;28;20088;-72
2022/05/09 00:30:46;;;;;;;1999.90;999.90;;;;;;;16.17;60.44;96006.09;5012262;28;20053;-74
2022/05/09 00:33:11;;;;;;;1999.90;999.90;;;;;;;16.07;60.86;96026.03;4994566;28;20065;-73
2022/05/09 00:35:37;;;;;;;1999.90;999.90;;;;;;;15.23;63.89;96015.66;5011693;28;20036;-73
2022/05/09 00:38:03;;;;;;;1999.90;999.90;;;;;;;15.23;63.61;95999.56;5011617;28;20022;-74
2022/05/09 00:40:29;;;;;;;1999.90;999.90;;;;;;;15.89;62.09;96023.66;5011985;28;20076;-74
2022/05/09 00:42:54;;;;;;;1999.90;999.90;;;;;;;15.76;61.22;95979.78;4993536;28;20030;-74
2022/05/09 00:45:23;;;;;;;1999.90;999.90;;;;;;;15.71;61.83;96026.31;5011995;28;20025;-74
2022/05/09 00:47:49;;;;;;;1999.90;999.90;;;;;;;15.72;62.01;96021.78;4994653;28;20116;-75
2022/05/09 00:50:19;;;;;;;1999.90;999.90;;;;;;;15.95;61.91;96015.13;5011285;28;20161;-74
2022/05/09 00:53:14;;;;;;;1999.90;999.90;;;;;;;16.11;60.83;96018.91;5011747;28;20029;-74
2022/05/09 00:55:51;;;;;;;1999.90;999.90;;;;;;;15.69;60.79;95990.19;4998669;28;20045;-75
2022/05/09 00:58:40;;;;;;;1999.90;999.90;;;;;;;15.99;61.32;96021.44;4993866;28;20561;-73
2022/05/09 01:01:08;;;;;;;1999.90;999.90;;;;;;;15.97;60.68;96010.25;5011601;28;20030;-74
2022/05/09 01:04:02;;;;;;;1999.90;999.90;;;;;;;16.05;60.78;96022.84;5011514;28;20101;-75
2022/05/09 01:06:28;;;;;;;1999.90;999.90;;;;;;;15.98;60.56;95987.66;4989704;28;20048;-74
2022/05/09 01:08:53;;;;;;;1999.90;999.90;;;;;;;16.25;60.56;96023.31;5011080;28;20109;-74
2022/05/09 01:11:23;;;;;;;1999.90;999.90;;;;;;;16.41;60.74;96020.91;5011618;28;20482;-74
2022/05/09 01:13:53;;;;;;;1999.90;999.90;;;;;;;16.41;60.11;96002.91;4993758;28;20041;-75
2022/05/09 01:16:20;;;;;;;1999.90;999.90;;;;;;;16.69;59.91;96018.66;4993849;28;20032;-74
2022/05/09 01:18:46;;;;;;;1999.90;999.90;;;;;;;16.62;59.48;96003.00;5010774;28;20025;-74
2022/05/09 01:21:35;;;;;;;1999.90;999.90;;;;;;;16.81;58.85;96013.41;5010985;28;20703;-73
2022/05/09 01:24:03;;;;;;;1999.90;999.90;;;;;;;16.63;59.06;95986.59;5011093;28;20030;-74
2022/05/09 01:26:28;;;;;;;1999.90;999.90;;;;;;;16.74;59.22;95986.25;5010996;28;20033;-73
2022/05/09 01:29:05;;;;;;;1999.90;999.90;;;;;;;16.88;58.78;96013.69;4993140;28;20036;-73
2022/05/09 01:31:30;;;;;;;1999.90;999.90;;;;;;;16.59;58.73;95979.50;4993624;28;20079;-74
2022/05/09 01:33:56;;;;;;;1999.90;999.90;;;;;;;16.53;58.62;95988.81;5010935;28;20096;-73
2022/05/09 01:36:33;;;;;;;1999.90;999.90;;;;;;;16.61;58.88;96001.44;5010922;28;20487;-73
2022/05/09 01:39:25;;;;;;;1999.90;999.90;;;;;;;16.54;58.83;96010.00;5010663;28;20036;-74
2022/05/09 01:41:51;;;;;;;1999.90;999.90;;;;;;;16.54;58.83;96025.31;4990866;28;20042;-73
2022/05/09 01:44:17;;;;;;;1999.90;999.90;;;;;;;16.43;58.64;96013.31;4993122;28;20022;-73
2022/05/09 01:49:29;;;;;;;1999.90;999.90;;;;;;;16.14;58.79;95995.22;5010675;28;20513;-74
2022/05/09 01:51:55;;;;;;;1999.90;999.90;;;;;;;15.62;58.77;95930.88;5010664;28;20113;-73
2022/05/09 01:54:21;;;;;;;1999.90;999.90;;;;;;;16.23;59.19;96015.59;5009491;28;20041;-73
2022/05/09 01:56:46;;;;;;;1999.90;999.90;;;;;;;16.21;58.99;96009.72;5010539;28;20026;-74
2022/05/09 01:59:13;;;;;;;1999.90;999.90;;;;;;;16.30;58.97;96020.47;4992638;28;20398;-74
2022/05/09 02:02:00;;;;;;;1999.90;999.90;;;;;;;16.08;59.23;95986.56;4992825;28;20052;-73
2022/05/09 02:04:27;;;;;;;1999.90;999.90;;;;;;;16.18;59.12;96001.56;4992714;28;20572;-74
2022/05/09 02:06:54;;;;;;;1999.90;999.90;;;;;;;16.27;59.03;96016.50;5037861;23;20045;-69
2022/05/09 02:09:20;;;;;;;1999.90;999.90;;;;;;;16.10;58.95;95998.53;5029830;28;20029;-68
2022/05/09 02:11:45;;;;;;;1999.90;999.90;;;;;;;15.99;58.99;95988.47;5012213;28;20063;-69
2022/05/09 02:14:10;;;;;;;1999.90;999.90;;;;;;;16.04;59.19;95999.03;5023656;28;20061;-70
2022/05/09 02:16:37;;;;;;;1999.90;999.90;;;;;;;16.14;59.13;96024.75;5009984;28;20087;-69
2022/05/09 02:19:04;;;;;;;1999.90;999.90;;;;;;;16.00;59.34;96014.19;5010009;28;20185;-69
2022/05/09 02:21:30;;;;;;;1999.90;999.90;;;;;;;16.02;59.00;96025.38;4992580;28;20029;-70
2022/05/09 02:23:56;;;;;;;1999.90;999.90;;;;;;;15.94;59.31;96018.91;5010155;28;20025;-69
2022/05/09 02:26:21;;;;;;;1999.90;999.90;;;;;;;15.83;59.43;96006.94;5010151;28;20032;-69
2022/05/09 02:28:47;;;;;;;1999.90;999.90;;;;;;;15.92;59.15;96014.97;4992098;28;20490;-69
2022/05/09 02:31:12;;;;;;;1999.90;999.90;;;;;;;15.89;59.12;96004.88;4992569;28;20052;-69
2022/05/09 02:33:38;;;;;;;1999.90;999.90;;;;;;;15.82;59.26;96005.38;5010046;28;20028;-69
2022/05/09 02:36:03;;;;;;;1999.90;999.90;;;;;;;15.82;59.08;96008.03;5010236;28;20105;-69
2022/05/09 02:38:29;;;;;;;1999.90;999.90;;;;;;;15.63;59.17;95999.47;4991713;28;20026;-69
2022/05/09 02:40:55;;;;;;;1999.90;999.90;;;;;;;15.62;59.97;96028.19;5009922;28;20022;-69
2022/05/09 02:43:21;;;;;;;1999.90;999.90;;;;;;;15.50;59.98;96001.97;4992486;28;20022;-69
2022/05/09 02:45:47;;;;;;;1999.90;999.90;;;;;;;15.46;60.14;95998.38;4992249;28;20024;-69
2022/05/09 02:48:13;;;;;;;1999.90;999.90;;;;;;;15.67;59.87;96021.94;5009666;28;20116;-69
2022/05/09 02:50:39;;;;;;;1999.90;999.90;;;;;;;15.51;60.44;96014.31;4992104;28;20029;-69
2022/05/09 02:53:07;;;;;;;1999.90;999.90;;;;;;;15.39;60.98;96010.66;4992310;28;20088;-69
2022/05/09 02:55:33;;;;;;;1999.90;999.90;;;;;;;15.65;60.45;96002.66;5009558;28;20076;-69
2022/05/09 02:58:00;;;;;;;1999.90;999.90;;;;;;;15.87;60.13;96021.31;4990750;28;20025;-69
2022/05/09 03:00:29;;;;;;;1999.90;999.90;;;;;;;15.88;59.65;95993.38;5008938;28;20022;-69
2022/05/09 03:05:50;;;;;;;1999.90;999.90;;;;;;;15.94;59.22;95999.34;4946785;28;20074;-69
2022/05/09 03:08:18;;;;;;;1999.90;999.90;;;;;;;15.98;59.29;96011.81;5013178;28;20060;-68
2022/05/09 03:10:44;;;;;;;1999.90;999.90;;;;;;;16.07;59.63;96017.16;5012017;28;20037;-68
2022/05/09 03:13:12;;;;;;;1999.90;999.90;;;;;;;16.07;59.24;96001.88;5013806;28;20026;-69
2022/05/09 03:15:41;;;;;;;1999.90;999.90;;;;;;;16.13;59.02;96013.22;5012135;28;20458;-70
2022/05/09 03:18:08;;;;;;;1999.90;999.90;;;;;;;15.86;58.78;96011.66;5013101;28;20037;-69
2022/05/09 03:20:33;;;;;;;1999.90;999.90;;;;;;;15.59;59.34;95970.59;5011760;28;20022;-69
2022/05/09 03:22:59;;;;;;;1999.90;999.90;;;;;;;15.76;59.32;96004.72;5013354;28;20026;-70
2022/05/09 03:25:24;;;;;;;1999.90;999.90;;;;;;;15.87;59.11;96021.31;5011824;28;20406;-69
2022/05/09 03:27:50;;;;;;;1999.90;999.90;;;;;;;15.64;58.73;95990.34;5012189;28;20080;-71
2022/05/09 03:30:17;;;;;;;1999.90;999.90;;;;;;;15.55;59.05;95983.06;5012854;28;20037;-69
2022/05/09 03:32:44;;;;;;;1999.90;999.90;;;;;;;15.77;58.78;96025.09;5011970;28;20029;-69
2022/05/09 03:35:10;;;;;;;1999.90;999.90;;;;;;;15.77;59.01;96025.09;5013402;28;20029;-70
2022/05/09 03:37:36;;;;;;;1999.90;999.90;;;;;;;15.59;59.07;95999.31;5012203;28;20085;-70
2022/05/09 03:40:03;;;;;;;1999.90;999.90;;;;;;;15.60;58.88;96009.72;5011435;28;20022;-70
2022/05/09 03:42:28;;;;;;;1999.90;999.90;;;;;;;15.44;59.34;96011.28;5011671;28;20045;-70
2022/05/09 03:44:54;;;;;;;1999.90;999.90;;;;;;;15.59;59.40;96013.50;5011243;28;20632;-70
2022/05/09 03:47:19;;;;;;;1999.90;999.90;;;;;;;15.63;59.52;96011.03;5013056;28;20026;-70
2022/05/09 03:49:44;;;;;;;1999.90;999.90;;;;;;;15.55;59.36;96007.19;5012074;28;20026;-68
2022/05/09 03:52:10;;;;;;;1999.90;999.90;;;;;;;15.37;59.44;96012.84;5011642;28;20033;-69
2022/05/09 03:54:36;;;;;;;1999.90;999.90;;;;;;;15.51;59.35;96010.84;5012226;28;20492;-69
2022/05/09 03:57:02;;;;;;;1999.90;999.90;;;;;;;15.57;59.42;96017.63;5011404;28;20022;-70
2022/05/09 03:59:28;;;;;;;1999.90;999.90;;;;;;;15.66;59.09;96031.06;5011127;28;20041;-70
2022/05/09 04:01:56;;;;;;;1999.90;999.90;;;;;;;15.50;59.18;96004.66;5011281;28;20026;-70
2022/05/09 04:04:21;;;;;;;1999.90;999.90;;;;;;;15.45;58.96;95996.78;5012669;28;20093;-70
2022/05/09 04:06:49;;;;;;;1999.90;999.90;;;;;;;15.67;58.87;96038.81;5011249;28;20125;-69
2022/05/09 04:09:15;;;;;;;1999.90;999.90;;;;;;;15.45;59.15;96007.50;5012193;28;20120;-69
2022/05/09 04:11:40;;;;;;;1999.90;999.90;;;;;;;15.57;58.74;96014.94;5012690;28;20105;-70
2022/05/09 04:14:06;;;;;;;1999.90;999.90;;;;;;;15.72;58.59;96045.91;5011083;28;20037;-70
2022/05/09 04:16:49;;;;;;;1999.90;999.90;;;;;;;15.53;58.60;96036.22;5010076;28;20777;-69
2022/05/09 04:19:15;;;;;;;1999.90;999.90;;;;;;;15.03;59.43;95996.38;5011802;28;20569;-69
2022/05/09 04:21:41;;;;;;;1999.90;999.90;;;;;;;15.30;59.53;96043.59;5012343;28;20040;-69
2022/05/09 04:24:07;;;;;;;1999.90;999.90;;;;;;;15.31;59.01;96013.00;5010899;28;20025;-70
2022/05/09 04:26:32;;;;;;;1999.90;999.90;;;;;;;15.56;58.86;96034.81;5010847;28;20057;-69
2022/05/09 04:28:58;;;;;;;1999.90;999.90;;;;;;;15.70;58.57;96048.09;5010508;28;20026;-71
2022/05/09 04:31:24;;;;;;;1999.90;999.90;;;;;;;15.60;58.52;96054.53;5012064;28;20033;-72
2022/05/09 04:33:50;;;;;;;1999.90;999.90;;;;;;;15.62;58.76;96054.22;5010790;28;20030;-70
2022/05/09 04:36:15;;;;;;;1999.90;999.90;;;;;;;15.70;58.48;96037.38;5010632;28;20073;-70
2022/05/09 04:38:43;;;;;;;1999.90;999.90;;;;;;;15.79;58.56;96040.84;5011632;28;20029;-70
2022/05/09 04:41:10;;;;;;;1999.90;999.90;;;;;;;15.79;58.44;96020.19;5010289;28;20084;-69
2022/05/09 04:43:36;;;;;;;1999.90;999.90;;;;;;;15.99;57.94;96044.81;5011668;28;20029;-70
2022/05/09 04:46:04;;;;;;;1999.90;999.90;;;;;;;16.02;58.20;96053.03;5012024;28;20527;-70
2022/05/09 04:48:30;;;;;;;1999.90;999.90;;;;;;;16.13;57.87;96055.41;5011237;28;20113;-70
2022/05/09 04:50:56;;;;;;;1999.90;999.90;;;;;;;16.14;57.42;96030.13;5011278;28;20026;-69
2022/05/09 04:53:22;;;;;;;1999.90;999.90;;;;;;;16.20;57.43;96007.38;5010358;28;20038;-70
2022/05/09 04:55:48;;;;;;;1999.90;999.90;;;;;;;16.59;57.48;96034.00;5010338;28;20021;-69
2022/05/09 04:58:15;;;;;;;1999.90;999.90;;;;;;;16.88;56.85;96052.09;5011387;28;20157;-69
2022/05/09 05:00:41;;;;;;;1999.90;999.90;;;;;;;17.02;56.50;96057.25;5010093;28;20421;-70
2022/05/09 05:03:07;;;;;;;1999.90;999.90;;;;;;;16.76;56.27;95990.19;5010082;28;20034;-67
2022/05/09 05:05:33;;;;;;;1999.90;999.90;;;;;;;17.38;55.70;96047.94;5009961;28;20033;-69
2022/05/09 05:08:00;;;;;;;1999.90;999.90;;;;;;;17.67;55.27;96061.38;5011164;28;20036;-69
2022/05/09 05:10:26;;;;;;;1999.90;999.90;;;;;;;18.02;54.95;96060.38;5009714;28;20036;-68
2022/05/09 05:12:52;;;;;;;1999.90;999.90;;;;;;;18.00;54.43;96011.44;5011288;28;20041;-70
2022/05/09 05:15:18;;;;;;;1999.90;999.90;;;;;;;18.53;54.32;96069.09;5011558;28;20029;-68
2022/05/09 05:17:43;;;;;;;1999.90;999.90;;;;;;;18.76;53.25;96050.66;5009744;28;20117;-71
2022/05/09 05:20:12;;;;;;;1999.90;999.90;;;;;;;19.13;52.24;96073.84;5009293;28;20028;-67
2022/05/09 05:22:42;;;;;;;1999.90;999.90;;;;;;;19.35;52.10;96045.69;5010562;28;20025;-65
2022/05/09 05:25:10;;;;;;;1999.90;999.90;;;;;;;19.51;51.24;96053.88;5009576;28;20026;-66
2022/05/09 05:27:36;;;;;;;1999.90;999.90;;;;;;;19.64;50.99;96047.34;5011101;28;20075;-66
2022/05/09 05:30:02;;;;;;;1999.90;999.90;;;;;;;19.87;50.82;96055.75;5010657;28;20371;-66
2022/05/09 05:32:36;;;;;;;1999.90;999.90;;;;;;;20.13;50.43;96052.66;5010332;28;20018;-67
2022/05/09 05:35:03;;;;;;;1999.90;999.90;;;;;;;20.34;49.86;96057.06;5010553;28;20029;-66
2022/05/09 05:37:28;;;;;;;1999.90;999.90;;;;;;;20.34;49.71;96038.94;5010689;28;20021;-66
2022/05/09 05:39:54;;;;;;;1999.90;999.90;;;;;;;20.47;49.36;96039.69;5008611;28;20431;-67
2022/05/09 05:42:20;;;;;;;1999.90;999.90;;;;;;;20.86;49.36;96066.97;5009192;28;20033;-67
2022/05/09 05:44:46;;;;;;;1999.90;999.90;;;;;;;20.83;49.42;96046.03;5008857;28;20108;-65
2022/05/09 05:47:14;;;;;;;1999.90;999.90;;;;;;;20.77;49.13;96061.72;5010633;28;20083;-66
2022/05/09 05:49:40;;;;;;;1999.90;999.90;;;;;;;20.76;49.25;96057.47;5008972;28;20030;-66
2022/05/09 05:52:07;;;;;;;1999.90;999.90;;;;;;;20.98;49.29;96075.78;5009106;28;20026;-66
2022/05/09 05:54:39;;;;;;;1999.90;999.90;;;;;;;21.06;48.72;96047.03;5008991;28;20057;-67
2022/05/09 05:57:06;;;;;;;1999.90;999.90;;;;;;;21.29;48.81;96085.88;5010302;28;20022;-66
2022/05/09 05:59:32;;;;;;;1999.90;999.90;;;;;;;21.24;48.21;96060.97;5008652;28;20381;-67
2022/05/09 06:01:57;;;;;;;1999.90;999.90;;;;;;;21.40;47.99;96061.00;5010141;28;20030;-67
2022/05/09 06:04:23;;;;;;;1999.90;999.90;;;;;;;21.51;47.80;96067.47;5010204;28;20026;-67
2022/05/09 06:06:49;;;;;;;1999.90;999.90;;;;;;;21.61;47.41;96076.97;5008898;28;20560;-67
2022/05/09 06:09:14;;;;;;;1999.90;999.90;;;;;;;21.61;47.52;96066.91;5010173;28;20442;-67
2022/05/09 06:11:40;;;;;;;1999.90;999.90;;;;;;;21.76;46.63;96070.75;5010340;28;20108;-67
2022/05/09 06:14:07;;;;;;;1999.90;999.90;;;;;;;21.88;46.72;96089.56;5010035;28;20033;-67
2022/05/09 06:16:34;;;;;;;1999.90;999.90;;;;;;;21.90;46.48;96078.38;5010135;28;20036;-67
2022/05/09 06:19:00;;;;;;;1999.90;999.90;;;;;;;22.06;46.06;96077.22;5008327;28;20080;-68
2022/05/09 06:21:26;;;;;;;1999.90;999.90;;;;;;;22.22;45.82;96081.81;5009727;28;20026;-68
2022/05/09 06:23:51;;;;;;;1999.90;999.90;;;;;;;22.09;45.45;96067.56;5009981;28;20064;-68
2022/05/09 06:26:17;;;;;;;1999.90;999.90;;;;;;;22.24;45.58;96093.06;5008675;28;20061;-68
2022/05/09 06:28:42;;;;;;;1999.90;999.90;;;;;;;22.02;45.83;96078.25;5009442;28;20029;-67
2022/05/09 06:31:09;;;;;;;1999.90;999.90;;;;;;;21.96;46.32;96076.97;5007252;28;20022;-69
2022/05/09 06:33:35;;;;;;;1999.90;999.90;;;;;;;21.69;46.78;96087.59;5009236;28;20030;-69
2022/05/09 06:36:03;;;;;;;1999.90;999.90;;;;;;;21.57;47.13;96097.75;5010867;28;20056;-68
2022/05/09 06:38:29;;;;;;;1999.90;999.90;;;;;;;21.24;47.76;96086.13;5010193;28;20478;-69
2022/05/09 06:40:54;;;;;;;1999.90;999.90;;;;;;;20.91;48.43;96067.50;5008605;28;20558;-69
2022/05/09 06:43:22;;;;;;;1999.90;999.90;;;;;;;21.13;48.34;96086.97;5012630;28;20049;-70
2022/05/09 06:45:50;;;;;;;1999.90;999.90;;;;;;;21.24;48.01;96102.38;5011525;28;20060;-68
2022/05/09 06:48:16;;;;;;;1999.90;999.90;;;;;;;21.08;49.12;96106.97;5009433;28;20033;-66
2022/05/09 06:50:41;;;;;;;1999.90;999.90;;;;;;;21.13;48.93;96100.50;5018891;28;20018;-70
2022/05/09 06:53:08;;;;;;;1999.90;999.90;;;;;;;20.89;49.30;96088.72;5013838;28;20030;-71
2022/05/09 06:55:34;;;;;;;1999.90;999.90;;;;;;;21.14;48.47;96100.19;5006780;28;20044;-67
2022/05/09 06:57:59;;;;;;;1999.90;999.90;;;;;;;21.12;48.73;96102.44;5010580;28;20483;-67
2022/05/09 07:00:26;;;;;;;1999.90;999.90;;;;;;;21.08;48.66;96074.50;5012877;28;20041;-66
2022/05/09 07:02:52;;;;;;;1999.90;999.90;;;;;;;21.09;48.60;96092.31;5011837;28;20025;-67
2022/05/09 07:05:20;;;;;;;1999.90;999.90;;;;;;;21.09;48.77;96096.91;5010304;28;20030;-66
2022/05/09 07:07:45;;;;;;;1999.90;999.90;;;;;;;21.31;48.75;96114.53;5011694;28;20018;-68
2022/05/09 07:10:13;;;;;;;1999.90;999.90;;;;;;;21.23;48.60;96097.28;4995923;28;20126;-68
2022/05/09 07:12:50;;;;;;;1999.90;999.90;;;;;;;20.81;48.83;96067.25;5010867;28;20018;-68
2022/05/09 07:15:19;;;;;;;1999.90;999.90;;;;;;;21.13;49.31;96100.50;4995250;28;20057;-67
2022/05/09 07:17:45;;;;;;;1999.90;999.90;;;;;;;21.15;48.92;96085.50;4996133;28;20546;-68
2022/05/09 07:20:11;;;;;;;1999.90;999.90;;;;;;;21.41;49.15;96103.97;5015817;28;20060;-68
2022/05/09 07:22:37;;;;;;;1999.90;999.90;;;;;;;21.27;48.81;96090.03;5011403;28;20518;-67
2022/05/09 07:25:03;;;;;;;1999.90;999.90;;;;;;;21.29;48.79;96090.47;4994388;28;20072;-65
2022/05/09 07:27:30;;;;;;;1999.90;999.90;;;;;;;21.61;48.72;96096.69;5018078;28;20100;-66
2022/05/09 07:29:56;;;;;;;1999.90;999.90;;;;;;;21.83;48.15;96095.25;5012968;28;20128;-67
2022/05/09 07:32:21;;;;;;;1999.90;999.90;;;;;;;21.77;47.39;96086.63;5010227;28;20022;-65
2022/05/09 07:34:48;;;;;;;1999.90;999.90;;;;;;;22.11;47.22;96107.88;5010248;28;20026;-64
2022/05/09 07:38:05;;;;;;;1999.90;999.90;;;;;;;22.19;46.81;96113.09;5009565;28;20494;-73
2022/05/09 07:40:34;;;;;;;1999.90;999.90;;;;;;;22.01;46.04;96114.63;5006606;28;20057;-68
2022/05/09 07:43:00;;;;;;;1999.90;999.90;;;;;;;21.75;47.42;96120.59;5012658;28;20058;-67
2022/05/09 07:45:25;;;;;;;1999.90;999.90;;;;;;;21.52;46.76;96088.75;4993826;28;20107;-67
2022/05/09 07:47:51;;;;;;;1999.90;999.90;;;;;;;21.34;47.31;96089.47;5012132;28;20026;-67
2022/05/09 07:50:17;;;;;;;1999.90;999.90;;;;;;;20.94;48.94;96102.00;4993055;28;20026;-68
2022/05/09 07:52:44;;;;;;;1999.90;999.90;;;;;;;20.72;49.29;96072.78;4994602;28;20085;-67
2022/05/09 07:55:11;;;;;;;1999.90;999.90;;;;;;;21.53;47.55;96076.78;4994002;28;20034;-68
2022/05/09 07:57:37;;;;;;;1999.90;999.90;;;;;;;20.70;49.29;96092.06;5011639;28;20024;-66
2022/05/09 08:00:05;;;;;;;1999.90;999.90;;;;;;;22.00;46.81;96113.81;5011128;28;20026;-66
2022/05/09 08:02:32;;;;;;;1999.90;999.90;;;;;;;22.45;45.52;96107.06;5012214;28;20022;-68
2022/05/09 08:04:58;;;;;;;1999.90;999.90;;;;;;;22.95;44.58;96113.47;4993085;28;20067;-67
2022/05/09 08:07:23;;;;;;;1999.90;999.90;;;;;;;22.49;44.93;96105.22;4994022;28;20029;-67
2022/05/09 08:09:48;;;;;;;1999.90;999.90;;;;;;;22.45;45.57;96109.75;5010029;28;20058;-67
2022/05/09 08:12:14;;;;;;;1999.90;999.90;;;;;;;23.18;44.44;96110.00;5010880;28;20041;-67
2022/05/09 08:14:39;;;;;;;1999.90;999.90;;;;;;;22.34;45.21;96105.28;4990530;28;20030;-67
2022/05/09 08:17:09;;;;;;;1999.90;999.90;;;;;;;22.40;45.62;96104.63;5003295;28;20037;-67
2022/05/09 08:19:35;;;;;;;1999.90;999.90;;;;;;;21.81;46.03;96100.25;4993631;28;20022;-68
2022/05/09 08:22:01;;;;;;;1999.90;999.90;;;;;;;20.54;49.09;96095.88;5002237;28;20445;-68
2022/05/09 08:24:28;;;;;;;1999.90;999.90;;;;;;;21.04;48.25;96111.50;4988134;28;20026;-67
2022/05/09 08:26:54;;;;;;;1999.90;999.90;;;;;;;21.36;47.22;96092.63;4987370;28;20120;-67
2022/05/09 08:29:19;;;;;;;1999.90;999.90;;;;;;;21.05;47.93;96109.59;4999271;28;20073;-67
2022/05/09 08:31:45;;;;;;;1999.90;999.90;;;;;;;21.37;47.42;96113.13;4984273;28;20030;-68
2022/05/09 08:34:10;;;;;;;1999.90;999.90;;;;;;;20.19;49.47;96080.19;5004403;28;20030;-68
2022/05/09 08:36:53;;;;;;;1999.90;999.90;;;;;;;21.20;47.60;96081.75;5016858;28;20030;-67
2022/05/09 08:39:19;;;;;;;1999.90;999.90;;;;;;;21.60;47.10;96110.56;5008164;28;20084;-66
2022/05/09 08:41:56;;;;;;;1999.90;999.90;;;;;;;21.68;46.63;96113.09;5005180;28;20052;-67
2022/05/09 08:44:39;;;;;;;1999.90;999.90;;;;;;;22.29;45.77;96111.75;5008636;28;20034;-69
2022/05/09 08:47:18;;;;;;;1999.90;999.90;;;;;;;22.21;45.20;96094.56;4993753;28;20025;-70
2022/05/09 08:50:11;;;;;;;1999.90;999.90;;;;;;;22.46;44.86;96111.31;5011401;28;20026;-66
2022/05/09 08:52:44;;;;;;;1999.90;999.90;;;;;;;22.77;45.14;96123.16;5008683;28;20040;-68
2022/05/09 08:55:12;;;;;;;1999.90;999.90;;;;;;;23.03;44.29;96106.22;5010731;28;20022;-67
2022/05/09 08:58:03;;;;;;;1999.90;999.90;;;;;;;22.69;44.06;96095.13;5010471;28;20032;-67
2022/05/09 09:00:31;;;;;;;1999.90;999.90;;;;;;;22.83;44.38;96095.41;4994831;28;20105;-67
2022/05/09 09:03:16;;;;;;;1999.90;999.90;;;;;;;22.81;44.39;96115.88;4991885;28;20487;-67
2022/05/09 09:05:49;;;;;;;1999.90;999.90;;;;;;;22.48;44.67;96113.72;4993940;28;20045;-67
2022/05/09 09:08:28;;;;;;;1999.90;999.90;;;;;;;22.94;43.81;96106.50;5028408;28;20470;-69
2022/05/09 09:11:35;;;;;;;1999.90;999.90;;;;;;;23.84;42.38;96109.53;5002382;28;20060;-68
2022/05/09 09:14:19;;;;;;;1999.90;999.90;;;;;;;23.34;42.85;96119.59;4991695;28;20040;-68
2022/05/09 09:16:56;;;;;;;1999.90;999.90;;;;;;;23.93;42.14;96119.38;5003546;28;20390;-66
2022/05/09 09:19:43;;;;;;;1999.90;999.90;;;;;;;23.13;45.36;96121.91;5011104;28;20021;-67
2022/05/09 09:22:19;;;;;;;1999.90;999.90;;;;;;;23.56;41.36;96095.50;5009736;28;20068;-64
2022/05/09 09:25:08;;;;;;;1999.90;999.90;;;;;;;24.36;40.86;96099.81;5010283;28;20059;-65
2022/05/09 09:27:55;;;;;;;1999.90;999.90;;;;;;;24.45;40.82;96106.88;5009242;28;20021;-64
2022/05/09 09:30:24;;;;;;;1999.90;999.90;;;;;;;23.52;41.86;96113.66;5009982;28;20038;-66
2022/05/09 09:33:00;;;;;;;1999.90;999.90;;;;;;;23.93;41.01;96112.00;5007562;28;20026;-67
2022/05/09 09:35:42;;;;;;;1999.90;999.90;;;;;;;24.06;41.03;96101.72;4998758;28;20142;-67
2022/05/09 09:38:32;;;;;;;1999.90;999.90;;;;;;;24.26;39.77;96107.78;5009480;28;20049;-67
2022/05/09 09:41:14;;;;;;;1999.90;999.90;;;;;;;24.76;39.66;96105.69;5007207;28;20061;-67
2022/05/09 09:43:40;;;;;;;1999.90;999.90;;;;;;;24.71;39.81;96101.38;5007748;28;20034;-67
2022/05/09 09:46:07;;;;;;;1999.90;999.90;;;;;;;25.18;40.16;96110.03;5006703;28;20768;-68
2022/05/09 09:48:34;;;;;;;1999.90;999.90;;;;;;;25.50;39.17;96075.72;5009858;28;20084;-68
2022/05/09 09:51:10;;;;;;;1999.90;999.90;;;;;;;25.14;37.84;96080.06;5008553;28;20481;-68
2022/05/09 09:53:52;;;;;;;1999.90;999.90;;;;;;;25.10;38.21;96101.81;5008268;28;20478;-68
2022/05/09 09:56:20;;;;;;;1999.90;999.90;;;;;;;25.37;37.48;96099.72;5008847;28;20025;-67
2022/05/09 09:58:45;;;;;;;1999.90;999.90;;;;;;;24.95;39.38;96107.44;5008813;28;20156;-74
2022/05/09 10:01:13;;;;;;;1999.90;999.90;;;;;;;25.44;37.52;96100.91;5009223;28;20121;-71
2022/05/09 10:03:45;;;;;;;1999.90;999.90;;;;;;;24.53;38.36;96106.59;5006303;28;20030;-72
2022/05/09 10:06:22;;;;;;;1999.90;999.90;;;;;;;24.73;37.99;96084.69;5017125;28;20029;-70
2022/05/09 10:08:57;;;;;;;1999.90;999.90;;;;;;;24.88;38.27;96079.03;4996360;28;20394;-68
2022/05/09 10:11:28;;;;;;;1999.90;999.90;;;;;;;24.66;37.81;96103.63;5008887;28;20789;-69
2022/05/09 10:13:56;;;;;;;1999.90;999.90;;;;;;;24.58;38.58;96102.78;4988728;28;20026;-69
2022/05/09 10:16:30;;;;;;;1999.90;999.90;;;;;;;25.23;37.71;96088.69;5005615;28;20076;-70
2022/05/09 10:19:00;;;;;;;1999.90;999.90;;;;;;;25.37;37.43;96094.25;4992060;28;20173;-68
2022/05/09 10:27:22;;;;;;;1999.90;999.90;;;;;;;25.35;37.95;96093.88;5008164;28;20107;-70
2022/05/09 10:29:51;;;;;;;1999.90;999.90;;;;;;;24.41;38.29;96071.47;5009709;28;20390;-69
2022/05/09 10:32:23;;;;;;;1999.90;999.90;;;;;;;24.89;37.46;96080.56;4990196;28;20028;-68
2022/05/09 10:34:51;;;;;;;1999.90;999.90;;;;;;;24.01;38.91;96081.06;5009698;28;20014;-68
2022/05/09 10:38:12;;;;;;;1999.90;999.90;;;;;;;24.95;37.92;96085.69;5022939;28;20040;-72
2022/05/09 10:40:46;;;;;;;1999.90;999.90;;;;;;;24.70;38.34;96075.31;4912927;29;20123;-68
2022/05/09 10:43:18;;;;;;;1999.90;999.90;;;;;;;24.86;37.84;96081.31;5008576;28;20288;-71
2022/05/09 10:45:48;;;;;;;1999.90;999.90;;;;;;;25.15;37.48;96078.91;4991918;28;20026;-71
2022/05/09 10:48:25;;;;;;;1999.90;999.90;;;;;;;24.37;39.43;96059.81;5009669;28;20029;-73
2022/05/09 10:50:59;;;;;;;1999.90;999.90;;;;;;;24.87;37.30;96071.22;5007741;28;20038;-69
2022/05/09 10:53:53;;;;;;;1999.90;999.90;;;;;;;24.47;36.86;96074.69;4991080;28;20468;-70
2022/05/09 10:56:27;;;;;;;1999.90;999.90;;;;;;;24.99;37.07;96070.19;5008872;28;20053;-69
2022/05/09 10:59:04;;;;;;;1999.90;999.90;;;;;;;25.03;36.79;96073.69;5004521;28;20061;-68
2022/05/09 11:01:29;;;;;;;1999.90;999.90;;;;;;;25.14;36.85;96063.72;5000644;28;20029;-68
2022/05/09 11:03:56;;;;;;;1999.90;999.90;;;;;;;25.26;36.45;96058.00;5006940;28;20045;-73
2022/05/09 11:06:37;;;;;;;1999.90;999.90;;;;;;;26.01;35.92;96058.53;5006832;28;20590;-68
2022/05/09 11:09:30;;;;;;;1999.90;999.90;;;;;;;24.83;37.35;96064.97;4990071;28;20041;-69
2022/05/09 11:12:02;;;;;;;1999.90;999.90;;;;;;;24.52;37.62;96061.53;4991304;28;20037;-69
2022/05/09 11:14:45;;;;;;;1999.90;999.90;;;;;;;24.34;38.75;96058.56;4990085;28;20334;-69
2022/05/09 11:17:23;;;;;;;1999.90;999.90;;;;;;;24.13;38.24;96058.31;5008889;28;20503;-68